Terminal Aerodrome Forecast
Issued by NWS Quad Cities IA IL

Home | Current Version | Previous Version | Text Only | Print | Product List | Glossary On
Versions: 1 2 3 4 5 6 7 8 9 10 11 12 13 14 15 16 17 18 19 20 21 22
000
FTUS43 KDVN 210713 AAC
TAFMLI
TAF AMD
KMLI 210713Z 2107/2206 VRB03KT 3SM BR SCT120
      TEMPO 2107/2109 1/4SM FG VV002
     FM211200 VRB03KT 4SM -TSRA BR BKN050CB
     FM211600 16009KT P6SM BKN080
     FM211900 19013KT P6SM SCT040 BKN150=

USA.gov is the U.S. government's official web portal to all federal, state and local government web resources and services.